sensor_id;sensor_type;location;lat;lon;timestamp;temperature;humidity
12872;DHT22;6504;53.766;9.626;2023-03-01T00:01:42;1.40;99.90
12872;DHT22;6504;53.766;9.626;2023-03-01T00:04:11;1.40;99.90
12872;DHT22;6504;53.766;9.626;2023-03-01T00:06:39;1.40;99.90
12872;DHT22;6504;53.766;9.626;2023-03-01T00:09:07;1.30;99.90
12872;DHT22;6504;53.766;9.626;2023-03-01T00:11:35;1.30;99.90
12872;DHT22;6504;53.766;9.626;2023-03-01T00:14:03;1.30;99.90
12872;DHT22;6504;53.766;9.626;2023-03-01T00:16:34;1.30;99.90
12872;DHT22;6504;53.766;9.626;2023-03-01T00:19:03;1.30;99.90
12872;DHT22;6504;53.766;9.626;2023-03-01T00:21:32;1.30;99.90
12872;DHT22;6504;53.766;9.626;2023-03-01T00:24:02;1.30;99.90
12872;DHT22;6504;53.766;9.626;2023-03-01T00:26:31;1.20;99.90
12872;DHT22;6504;53.766;9.626;2023-03-01T00:28:59;1.20;99.90
12872;DHT22;6504;53.766;9.626;2023-03-01T00:31:29;1.20;99.90
12872;DHT22;6504;53.766;9.626;2023-03-01T00:33:58;1.20;99.90
12872;DHT22;6504;53.766;9.626;2023-03-01T00:36:29;1.20;99.90
12872;DHT22;6504;53.766;9.626;2023-03-01T00:38:59;1.20;99.90
12872;DHT22;6504;53.766;9.626;2023-03-01T00:41:27;1.10;99.90
12872;DHT22;6504;53.766;9.626;2023-03-01T00:43:55;1.10;99.90
12872;DHT22;6504;53.766;9.626;2023-03-01T00:46:26;1.10;99.90
12872;DHT22;6504;53.766;9.626;2023-03-01T00:48:55;1.10;99.90
12872;DHT22;6504;53.766;9.626;2023-03-01T00:51:25;1.10;99.90
12872;DHT22;6504;53.766;9.626;2023-03-01T00:53:54;1.10;99.90
12872;DHT22;6504;53.766;9.626;2023-03-01T00:56:24;1.00;99.90
12872;DHT22;6504;53.766;9.626;2023-03-01T00:58:52;1.00;99.90
12872;DHT22;6504;53.766;9.626;2023-03-01T01:01:22;1.00;99.90
12872;DHT22;6504;53.766;9.626;2023-03-01T01:03:52;1.00;99.90
12872;DHT22;6504;53.766;9.626;2023-03-01T01:06:22;1.00;99.90
12872;DHT22;6504;53.766;9.626;2023-03-01T01:08:51;1.00;99.90
12872;DHT22;6504;53.766;9.626;2023-03-01T01:11:20;0.90;99.90
12872;DHT22;6504;53.766;9.626;2023-03-01T01:13:50;0.90;99.90
12872;DHT22;6504;53.766;9.626;2023-03-01T01:16:20;0.90;99.90
12872;DHT22;6504;53.766;9.626;2023-03-01T01:18:49;0.90;99.90
12872;DHT22;6504;53.766;9.626;2023-03-01T01:21:19;0.80;99.90
12872;DHT22;6504;53.766;9.626;2023-03-01T01:23:48;0.80;99.90
12872;DHT22;6504;53.766;9.626;2023-03-01T01:26:18;0.80;99.90
12872;DHT22;6504;53.766;9.626;2023-03-01T01:28:46;0.80;99.90
12872;DHT22;6504;53.766;9.626;2023-03-01T01:31:16;0.80;99.90
12872;DHT22;6504;53.766;9.626;2023-03-01T01:33:44;0.80;99.90
12872;DHT22;6504;53.766;9.626;2023-03-01T01:36:12;0.80;99.90
12872;DHT22;6504;53.766;9.626;2023-03-01T01:38:40;0.80;99.90
12872;DHT22;6504;53.766;9.626;2023-03-01T01:41:10;0.70;99.90
12872;DHT22;6504;53.766;9.626;2023-03-01T01:43:41;0.70;99.90
12872;DHT22;6504;53.766;9.626;2023-03-01T01:46:19;0.80;99.90
12872;DHT22;6504;53.766;9.626;2023-03-01T01:48:52;0.70;99.90
12872;DHT22;6504;53.766;9.626;2023-03-01T01:51:24;0.70;99.90
12872;DHT22;6504;53.766;9.626;2023-03-01T01:53:55;0.70;99.90
12872;DHT22;6504;53.766;9.626;2023-03-01T01:56:24;0.70;99.90
12872;DHT22;6504;53.766;9.626;2023-03-01T01:58:54;0.70;99.90
12872;DHT22;6504;53.766;9.626;2023-03-01T02:01:24;0.70;99.90
12872;DHT22;6504;53.766;9.626;2023-03-01T02:03:53;0.70;99.90
12872;DHT22;6504;53.766;9.626;2023-03-01T02:06:26;0.70;99.90
12872;DHT22;6504;53.766;9.626;2023-03-01T02:09:06;0.70;99.90
12872;DHT22;6504;53.766;9.626;2023-03-01T02:11:36;0.60;99.90
12872;DHT22;6504;53.766;9.626;2023-03-01T02:14:04;0.60;99.90
12872;DHT22;6504;53.766;9.626;2023-03-01T02:16:34;0.60;99.90
12872;DHT22;6504;53.766;9.626;2023-03-01T02:19:03;0.60;99.90
12872;DHT22;6504;53.766;9.626;2023-03-01T02:21:40;0.60;99.90
12872;DHT22;6504;53.766;9.626;2023-03-01T02:35:35;0.50;99.90
12872;DHT22;6504;53.766;9.626;2023-03-01T02:38:07;0.50;99.90
12872;DHT22;6504;53.766;9.626;2023-03-01T02:40:37;0.50;99.90
12872;DHT22;6504;53.766;9.626;2023-03-01T02:43:09;0.50;99.90
12872;DHT22;6504;53.766;9.626;2023-03-01T02:45:47;0.50;99.90
12872;DHT22;6504;53.766;9.626;2023-03-01T02:48:15;0.50;99.90
12872;DHT22;6504;53.766;9.626;2023-03-01T02:50:55;0.40;99.90
12872;DHT22;6504;53.766;9.626;2023-03-01T02:53:32;0.40;99.90
12872;DHT22;6504;53.766;9.626;2023-03-01T02:56:02;0.40;99.90
12872;DHT22;6504;53.766;9.626;2023-03-01T02:58:31;0.40;99.90
12872;DHT22;6504;53.766;9.626;2023-03-01T03:01:07;0.40;99.90
12872;DHT22;6504;53.766;9.626;2023-03-01T03:03:36;0.40;99.90
12872;DHT22;6504;53.766;9.626;2023-03-01T03:06:06;0.30;99.90
12872;DHT22;6504;53.766;9.626;2023-03-01T03:08:34;0.30;99.90
12872;DHT22;6504;53.766;9.626;2023-03-01T03:11:03;0.30;99.90
12872;DHT22;6504;53.766;9.626;2023-03-01T03:13:31;0.30;99.90
12872;DHT22;6504;53.766;9.626;2023-03-01T03:15:59;0.30;99.90
12872;DHT22;6504;53.766;9.626;2023-03-01T03:18:27;0.30;99.90
12872;DHT22;6504;53.766;9.626;2023-03-01T03:20:55;0.30;99.90
12872;DHT22;6504;53.766;9.626;2023-03-01T03:23:25;0.30;99.90
12872;DHT22;6504;53.766;9.626;2023-03-01T03:25:53;0.20;99.90
12872;DHT22;6504;53.766;9.626;2023-03-01T03:28:21;0.20;99.90
12872;DHT22;6504;53.766;9.626;2023-03-01T03:30:49;0.20;99.90
12872;DHT22;6504;53.766;9.626;2023-03-01T03:33:17;0.20;99.90
12872;DHT22;6504;53.766;9.626;2023-03-01T03:35:47;0.20;99.90
12872;DHT22;6504;53.766;9.626;2023-03-01T03:38:17;0.20;99.90
12872;DHT22;6504;53.766;9.626;2023-03-01T03:40:49;0.20;99.90
12872;DHT22;6504;53.766;9.626;2023-03-01T03:43:19;0.10;99.90
12872;DHT22;6504;53.766;9.626;2023-03-01T03:45:48;0.10;99.90
12872;DHT22;6504;53.766;9.626;2023-03-01T03:48:17;0.10;99.90
12872;DHT22;6504;53.766;9.626;2023-03-01T03:50:48;0.10;99.90
12872;DHT22;6504;53.766;9.626;2023-03-01T03:53:17;0.10;99.90
12872;DHT22;6504;53.766;9.626;2023-03-01T03:55:47;0.10;99.90
12872;DHT22;6504;53.766;9.626;2023-03-01T03:58:17;0.10;99.90
12872;DHT22;6504;53.766;9.626;2023-03-01T04:00:48;0.10;99.90
12872;DHT22;6504;53.766;9.626;2023-03-01T04:03:18;0.10;99.90
12872;DHT22;6504;53.766;9.626;2023-03-01T04:05:46;0.10;99.90
12872;DHT22;6504;53.766;9.626;2023-03-01T04:08:17;0.10;99.90
12872;DHT22;6504;53.766;9.626;2023-03-01T04:10:49;0.10;99.90
12872;DHT22;6504;53.766;9.626;2023-03-01T04:13:20;0.00;99.90
12872;DHT22;6504;53.766;9.626;2023-03-01T04:15:49;0.00;99.90
12872;DHT22;6504;53.766;9.626;2023-03-01T04:18:18;0.00;99.90
12872;DHT22;6504;53.766;9.626;2023-03-01T04:20:47;0.00;99.90
12872;DHT22;6504;53.766;9.626;2023-03-01T04:23:17;0.00;99.90
12872;DHT22;6504;53.766;9.626;2023-03-01T04:25:50;0.00;99.90
12872;DHT22;6504;53.766;9.626;2023-03-01T04:28:22;0.00;99.90
12872;DHT22;6504;53.766;9.626;2023-03-01T04:30:52;-0.10;99.90
12872;DHT22;6504;53.766;9.626;2023-03-01T04:33:21;-0.10;99.90
12872;DHT22;6504;53.766;9.626;2023-03-01T04:35:49;-0.10;99.90
12872;DHT22;6504;53.766;9.626;2023-03-01T04:38:18;-0.10;99.90
12872;DHT22;6504;53.766;9.626;2023-03-01T04:40:48;-0.20;99.90
12872;DHT22;6504;53.766;9.626;2023-03-01T04:43:16;-0.20;99.90
12872;DHT22;6504;53.766;9.626;2023-03-01T04:45:44;-0.20;99.90
12872;DHT22;6504;53.766;9.626;2023-03-01T04:48:12;-0.20;99.90
12872;DHT22;6504;53.766;9.626;2023-03-01T04:50:40;-0.20;99.90
12872;DHT22;6504;53.766;9.626;2023-03-01T04:53:08;-0.20;99.90
12872;DHT22;6504;53.766;9.626;2023-03-01T04:55:36;-0.20;99.90
12872;DHT22;6504;53.766;9.626;2023-03-01T04:58:05;-0.20;99.90
12872;DHT22;6504;53.766;9.626;2023-03-01T05:00:33;-0.30;99.90
12872;DHT22;6504;53.766;9.626;2023-03-01T05:03:02;-0.30;99.90
12872;DHT22;6504;53.766;9.626;2023-03-01T05:05:31;-0.30;99.90
12872;DHT22;6504;53.766;9.626;2023-03-01T05:08:02;-0.30;99.90
12872;DHT22;6504;53.766;9.626;2023-03-01T05:10:32;-0.30;99.90
12872;DHT22;6504;53.766;9.626;2023-03-01T05:13:02;-0.30;99.90
12872;DHT22;6504;53.766;9.626;2023-03-01T05:15:32;-0.30;99.90
12872;DHT22;6504;53.766;9.626;2023-03-01T05:18:00;-0.30;99.90
12872;DHT22;6504;53.766;9.626;2023-03-01T05:20:30;-0.30;99.90
12872;DHT22;6504;53.766;9.626;2023-03-01T05:22:59;-0.30;99.90
12872;DHT22;6504;53.766;9.626;2023-03-01T05:25:33;-0.30;99.90
12872;DHT22;6504;53.766;9.626;2023-03-01T05:28:01;-0.30;99.90
12872;DHT22;6504;53.766;9.626;2023-03-01T05:30:33;-0.30;99.90
12872;DHT22;6504;53.766;9.626;2023-03-01T05:33:02;-0.30;99.90
12872;DHT22;6504;53.766;9.626;2023-03-01T05:35:32;-0.30;99.90
12872;DHT22;6504;53.766;9.626;2023-03-01T05:38:00;-0.30;99.90
12872;DHT22;6504;53.766;9.626;2023-03-01T05:40:28;-0.30;99.90
12872;DHT22;6504;53.766;9.626;2023-03-01T05:42:57;-0.30;99.90
12872;DHT22;6504;53.766;9.626;2023-03-01T05:45:26;-0.30;99.90
12872;DHT22;6504;53.766;9.626;2023-03-01T05:47:56;-0.30;99.90
12872;DHT22;6504;53.766;9.626;2023-03-01T05:50:25;-0.30;99.90
12872;DHT22;6504;53.766;9.626;2023-03-01T05:52:58;-0.30;99.90
12872;DHT22;6504;53.766;9.626;2023-03-01T05:55:28;-0.30;99.90
12872;DHT22;6504;53.766;9.626;2023-03-01T05:57:58;-0.30;99.90
12872;DHT22;6504;53.766;9.626;2023-03-01T06:00:28;-0.30;99.90
12872;DHT22;6504;53.766;9.626;2023-03-01T06:02:59;-0.30;99.90
12872;DHT22;6504;53.766;9.626;2023-03-01T06:05:28;-0.30;99.90
12872;DHT22;6504;53.766;9.626;2023-03-01T06:07:59;-0.30;99.90
12872;DHT22;6504;53.766;9.626;2023-03-01T06:10:27;-0.30;99.90
12872;DHT22;6504;53.766;9.626;2023-03-01T06:12:56;-0.30;99.90
12872;DHT22;6504;53.766;9.626;2023-03-01T06:15:25;-0.30;99.90
12872;DHT22;6504;53.766;9.626;2023-03-01T06:17:54;-0.30;99.90
12872;DHT22;6504;53.766;9.626;2023-03-01T06:20:28;-0.30;99.90
12872;DHT22;6504;53.766;9.626;2023-03-01T06:22:56;-0.30;99.90
12872;DHT22;6504;53.766;9.626;2023-03-01T06:25:26;-0.30;99.90
12872;DHT22;6504;53.766;9.626;2023-03-01T06:27:54;-0.20;99.90
12872;DHT22;6504;53.766;9.626;2023-03-01T06:30:24;-0.20;99.90
12872;DHT22;6504;53.766;9.626;2023-03-01T06:32:52;-0.20;99.90
12872;DHT22;6504;53.766;9.626;2023-03-01T06:35:30;-0.20;99.90
12872;DHT22;6504;53.766;9.626;2023-03-01T06:37:59;-0.20;99.90
12872;DHT22;6504;53.766;9.626;2023-03-01T06:40:27;-0.20;99.90
12872;DHT22;6504;53.766;9.626;2023-03-01T06:42:55;-0.20;99.90
12872;DHT22;6504;53.766;9.626;2023-03-01T06:45:24;-0.20;99.90
12872;DHT22;6504;53.766;9.626;2023-03-01T06:47:52;-0.20;99.90
12872;DHT22;6504;53.766;9.626;2023-03-01T06:50:20;-0.10;99.90
12872;DHT22;6504;53.766;9.626;2023-03-01T06:52:55;-0.20;99.90
12872;DHT22;6504;53.766;9.626;2023-03-01T06:55:23;-0.10;99.90
12872;DHT22;6504;53.766;9.626;2023-03-01T06:57:54;-0.10;99.90
12872;DHT22;6504;53.766;9.626;2023-03-01T07:00:24;-0.10;99.90
12872;DHT22;6504;53.766;9.626;2023-03-01T07:02:53;-0.10;99.90
12872;DHT22;6504;53.766;9.626;2023-03-01T07:05:21;0.00;99.90
12872;DHT22;6504;53.766;9.626;2023-03-01T07:07:50;0.00;99.90
12872;DHT22;6504;53.766;9.626;2023-03-01T07:10:19;0.00;99.90
12872;DHT22;6504;53.766;9.626;2023-03-01T07:12:47;0.00;99.90
12872;DHT22;6504;53.766;9.626;2023-03-01T07:15:15;0.00;99.90
12872;DHT22;6504;53.766;9.626;2023-03-01T07:17:43;0.10;99.90
12872;DHT22;6504;53.766;9.626;2023-03-01T07:20:14;0.00;99.90
12872;DHT22;6504;53.766;9.626;2023-03-01T07:22:42;0.10;99.90
12872;DHT22;6504;53.766;9.626;2023-03-01T07:25:12;0.10;99.90
12872;DHT22;6504;53.766;9.626;2023-03-01T07:27:40;0.10;99.90
12872;DHT22;6504;53.766;9.626;2023-03-01T07:30:10;0.10;99.90
12872;DHT22;6504;53.766;9.626;2023-03-01T07:32:38;0.10;99.90
12872;DHT22;6504;53.766;9.626;2023-03-01T07:35:07;0.20;99.90
12872;DHT22;6504;53.766;9.626;2023-03-01T07:37:42;0.20;99.90
12872;DHT22;6504;53.766;9.626;2023-03-01T07:40:12;0.20;99.90
12872;DHT22;6504;53.766;9.626;2023-03-01T07:42:40;0.20;99.90
12872;DHT22;6504;53.766;9.626;2023-03-01T07:45:09;0.20;99.90
12872;DHT22;6504;53.766;9.626;2023-03-01T07:47:37;0.20;99.90
12872;DHT22;6504;53.766;9.626;2023-03-01T07:50:06;0.20;99.90
12872;DHT22;6504;53.766;9.626;2023-03-01T07:52:34;0.20;99.90
12872;DHT22;6504;53.766;9.626;2023-03-01T07:55:03;0.30;99.90
12872;DHT22;6504;53.766;9.626;2023-03-01T07:57:32;0.30;99.90
12872;DHT22;6504;53.766;9.626;2023-03-01T08:00:00;0.30;99.90
12872;DHT22;6504;53.766;9.626;2023-03-01T08:02:30;0.30;99.90
12872;DHT22;6504;53.766;9.626;2023-03-01T08:04:59;0.30;99.90
12872;DHT22;6504;53.766;9.626;2023-03-01T08:07:28;0.40;99.90
12872;DHT22;6504;53.766;9.626;2023-03-01T08:09:56;0.30;99.90
12872;DHT22;6504;53.766;9.626;2023-03-01T08:12:24;0.40;99.90
12872;DHT22;6504;53.766;9.626;2023-03-01T08:14:55;0.40;99.90
12872;DHT22;6504;53.766;9.626;2023-03-01T08:17:25;0.50;99.90
12872;DHT22;6504;53.766;9.626;2023-03-01T08:19:54;0.50;99.90
12872;DHT22;6504;53.766;9.626;2023-03-01T08:22:22;0.50;99.90
12872;DHT22;6504;53.766;9.626;2023-03-01T08:24:52;0.60;99.90
12872;DHT22;6504;53.766;9.626;2023-03-01T08:27:22;0.60;99.90
12872;DHT22;6504;53.766;9.626;2023-03-01T08:29:51;0.70;99.90
12872;DHT22;6504;53.766;9.626;2023-03-01T08:32:21;0.70;99.90
12872;DHT22;6504;53.766;9.626;2023-03-01T08:34:49;0.70;99.90
12872;DHT22;6504;53.766;9.626;2023-03-01T08:37:17;0.70;99.90
12872;DHT22;6504;53.766;9.626;2023-03-01T08:39:46;0.80;99.90
12872;DHT22;6504;53.766;9.626;2023-03-01T08:42:14;0.80;99.90
12872;DHT22;6504;53.766;9.626;2023-03-01T08:44:42;0.90;99.90
12872;DHT22;6504;53.766;9.626;2023-03-01T08:47:12;0.90;99.90
12872;DHT22;6504;53.766;9.626;2023-03-01T08:49:42;0.90;99.90
12872;DHT22;6504;53.766;9.626;2023-03-01T08:52:10;1.00;99.90
12872;DHT22;6504;53.766;9.626;2023-03-01T08:54:39;1.10;99.90
12872;DHT22;6504;53.766;9.626;2023-03-01T08:57:13;1.10;99.90
12872;DHT22;6504;53.766;9.626;2023-03-01T08:59:41;1.20;99.90
12872;DHT22;6504;53.766;9.626;2023-03-01T09:02:12;1.30;99.90
12872;DHT22;6504;53.766;9.626;2023-03-01T09:04:41;1.30;99.90
12872;DHT22;6504;53.766;9.626;2023-03-01T09:07:10;1.30;99.90
12872;DHT22;6504;53.766;9.626;2023-03-01T09:09:38;1.40;99.90
12872;DHT22;6504;53.766;9.626;2023-03-01T09:12:07;1.40;99.90
12872;DHT22;6504;53.766;9.626;2023-03-01T09:14:35;1.50;99.90
12872;DHT22;6504;53.766;9.626;2023-03-01T09:17:04;1.60;99.90
12872;DHT22;6504;53.766;9.626;2023-03-01T09:19:32;1.70;99.90
12872;DHT22;6504;53.766;9.626;2023-03-01T09:22:02;1.70;99.90
12872;DHT22;6504;53.766;9.626;2023-03-01T09:24:32;1.80;99.90
12872;DHT22;6504;53.766;9.626;2023-03-01T09:27:01;1.80;99.90
12872;DHT22;6504;53.766;9.626;2023-03-01T09:29:29;1.90;99.90
12872;DHT22;6504;53.766;9.626;2023-03-01T09:31:57;1.90;99.90
12872;DHT22;6504;53.766;9.626;2023-03-01T09:34:26;2.00;99.90
12872;DHT22;6504;53.766;9.626;2023-03-01T09:36:54;2.10;99.90
12872;DHT22;6504;53.766;9.626;2023-03-01T09:39:22;2.20;99.90
12872;DHT22;6504;53.766;9.626;2023-03-01T09:41:57;2.20;99.90
12872;DHT22;6504;53.766;9.626;2023-03-01T09:44:31;2.20;99.90
12872;DHT22;6504;53.766;9.626;2023-03-01T09:47:00;2.30;99.90
12872;DHT22;6504;53.766;9.626;2023-03-01T09:49:33;2.30;99.90
12872;DHT22;6504;53.766;9.626;2023-03-01T09:52:09;2.40;99.90
12872;DHT22;6504;53.766;9.626;2023-03-01T09:54:40;2.40;99.90
12872;DHT22;6504;53.766;9.626;2023-03-01T09:57:18;2.40;99.90
12872;DHT22;6504;53.766;9.626;2023-03-01T10:00:11;2.50;99.90
12872;DHT22;6504;53.766;9.626;2023-03-01T10:02:44;2.50;99.90
12872;DHT22;6504;53.766;9.626;2023-03-01T10:05:25;2.60;99.90
12872;DHT22;6504;53.766;9.626;2023-03-01T10:08:14;2.60;99.90
12872;DHT22;6504;53.766;9.626;2023-03-01T10:10:48;2.60;99.90
12872;DHT22;6504;53.766;9.626;2023-03-01T10:13:23;2.70;99.90
12872;DHT22;6504;53.766;9.626;2023-03-01T10:15:55;2.70;99.90
12872;DHT22;6504;53.766;9.626;2023-03-01T10:18:26;2.80;99.90
12872;DHT22;6504;53.766;9.626;2023-03-01T10:20:58;2.80;99.90
12872;DHT22;6504;53.766;9.626;2023-03-01T10:23:30;2.80;99.90
12872;DHT22;6504;53.766;9.626;2023-03-01T10:26:12;2.80;99.90
12872;DHT22;6504;53.766;9.626;2023-03-01T10:28:53;2.90;99.90
12872;DHT22;6504;53.766;9.626;2023-03-01T10:31:27;2.90;99.90
12872;DHT22;6504;53.766;9.626;2023-03-01T10:33:56;2.90;99.90
12872;DHT22;6504;53.766;9.626;2023-03-01T10:36:25;3.00;99.90
12872;DHT22;6504;53.766;9.626;2023-03-01T10:38:55;3.00;99.90
12872;DHT22;6504;53.766;9.626;2023-03-01T10:41:25;3.00;99.90
12872;DHT22;6504;53.766;9.626;2023-03-01T10:43:57;3.00;99.90
12872;DHT22;6504;53.766;9.626;2023-03-01T10:46:28;3.10;99.90
12872;DHT22;6504;53.766;9.626;2023-03-01T10:49:07;3.10;99.90
12872;DHT22;6504;53.766;9.626;2023-03-01T10:51:40;3.20;99.90
12872;DHT22;6504;53.766;9.626;2023-03-01T10:54:17;3.20;99.90
12872;DHT22;6504;53.766;9.626;2023-03-01T10:56:47;3.30;99.90
12872;DHT22;6504;53.766;9.626;2023-03-01T10:59:35;3.30;99.90
12872;DHT22;6504;53.766;9.626;2023-03-01T11:02:16;3.30;99.90
12872;DHT22;6504;53.766;9.626;2023-03-01T11:04:59;3.30;99.90
12872;DHT22;6504;53.766;9.626;2023-03-01T11:07:28;3.40;99.90
12872;DHT22;6504;53.766;9.626;2023-03-01T11:09:56;3.40;99.90
12872;DHT22;6504;53.766;9.626;2023-03-01T11:12:24;3.50;99.90
12872;DHT22;6504;53.766;9.626;2023-03-01T11:14:57;3.50;99.90
12872;DHT22;6504;53.766;9.626;2023-03-01T11:17:28;3.50;99.90
12872;DHT22;6504;53.766;9.626;2023-03-01T11:20:10;3.60;99.90
12872;DHT22;6504;53.766;9.626;2023-03-01T11:22:47;3.60;99.90
12872;DHT22;6504;53.766;9.626;2023-03-01T11:25:15;3.60;99.90
12872;DHT22;6504;53.766;9.626;2023-03-01T11:27:45;3.70;99.90
12872;DHT22;6504;53.766;9.626;2023-03-01T11:30:21;3.70;99.90
12872;DHT22;6504;53.766;9.626;2023-03-01T11:33:08;3.70;99.90
12872;DHT22;6504;53.766;9.626;2023-03-01T11:35:44;3.80;99.90
12872;DHT22;6504;53.766;9.626;2023-03-01T11:38:21;3.80;99.90
12872;DHT22;6504;53.766;9.626;2023-03-01T11:40:52;3.90;99.90
12872;DHT22;6504;53.766;9.626;2023-03-01T11:43:33;3.90;99.90
12872;DHT22;6504;53.766;9.626;2023-03-01T11:49:37;4.00;99.90
12872;DHT22;6504;53.766;9.626;2023-03-01T11:52:16;4.00;99.90
12872;DHT22;6504;53.766;9.626;2023-03-01T11:54:57;4.00;99.90
12872;DHT22;6504;53.766;9.626;2023-03-01T11:57:40;4.10;99.90
12872;DHT22;6504;53.766;9.626;2023-03-01T12:00:20;4.10;99.90
12872;DHT22;6504;53.766;9.626;2023-03-01T12:03:18;4.20;99.90
12872;DHT22;6504;53.766;9.626;2023-03-01T12:09:13;4.20;99.90
12872;DHT22;6504;53.766;9.626;2023-03-01T12:11:59;4.30;99.90
12872;DHT22;6504;53.766;9.626;2023-03-01T12:14:51;4.30;99.90
12872;DHT22;6504;53.766;9.626;2023-03-01T12:17:40;4.40;99.90
12872;DHT22;6504;53.766;9.626;2023-03-01T12:20:26;4.40;99.90
12872;DHT22;6504;53.766;9.626;2023-03-01T12:23:21;4.40;99.90
12872;DHT22;6504;53.766;9.626;2023-03-01T12:25:56;4.50;99.90
12872;DHT22;6504;53.766;9.626;2023-03-01T12:31:39;4.50;99.90
12872;DHT22;6504;53.766;9.626;2023-03-01T12:37:18;4.50;99.90
12872;DHT22;6504;53.766;9.626;2023-03-01T12:40:03;4.60;99.90
12872;DHT22;6504;53.766;9.626;2023-03-01T12:42:45;4.60;99.90
12872;DHT22;6504;53.766;9.626;2023-03-01T12:45:33;4.50;99.90
12872;DHT22;6504;53.766;9.626;2023-03-01T12:48:13;4.60;99.90
12872;DHT22;6504;53.766;9.626;2023-03-01T12:50:48;4.70;99.90
12872;DHT22;6504;53.766;9.626;2023-03-01T12:53:23;4.70;99.90
12872;DHT22;6504;53.766;9.626;2023-03-01T12:55:54;4.70;99.90
12872;DHT22;6504;53.766;9.626;2023-03-01T12:58:27;4.70;99.90
12872;DHT22;6504;53.766;9.626;2023-03-01T13:01:24;4.70;99.90
12872;DHT22;6504;53.766;9.626;2023-03-01T13:04:12;4.70;99.90
12872;DHT22;6504;53.766;9.626;2023-03-01T13:06:47;4.70;99.90
12872;DHT22;6504;53.766;9.626;2023-03-01T13:09:25;4.70;99.90
12872;DHT22;6504;53.766;9.626;2023-03-01T13:11:58;4.80;99.90
12872;DHT22;6504;53.766;9.626;2023-03-01T13:14:45;4.80;99.90
12872;DHT22;6504;53.766;9.626;2023-03-01T13:17:40;4.80;99.90
12872;DHT22;6504;53.766;9.626;2023-03-01T13:20:17;4.80;99.90
12872;DHT22;6504;53.766;9.626;2023-03-01T13:22:45;4.90;99.90
12872;DHT22;6504;53.766;9.626;2023-03-01T13:25:22;4.90;99.90
12872;DHT22;6504;53.766;9.626;2023-03-01T13:28:40;4.90;99.90
12872;DHT22;6504;53.766;9.626;2023-03-01T13:31:11;4.90;99.90
12872;DHT22;6504;53.766;9.626;2023-03-01T13:33:59;5.00;99.90
12872;DHT22;6504;53.766;9.626;2023-03-01T13:36:46;5.00;99.90
12872;DHT22;6504;53.766;9.626;2023-03-01T13:39:29;5.00;99.90
12872;DHT22;6504;53.766;9.626;2023-03-01T13:42:01;5.10;99.90
12872;DHT22;6504;53.766;9.626;2023-03-01T13:44:32;5.10;99.90
12872;DHT22;6504;53.766;9.626;2023-03-01T13:47:08;5.10;99.90
12872;DHT22;6504;53.766;9.626;2023-03-01T13:49:47;5.10;99.90
12872;DHT22;6504;53.766;9.626;2023-03-01T13:52:37;5.20;99.90
12872;DHT22;6504;53.766;9.626;2023-03-01T13:55:17;5.20;99.90
12872;DHT22;6504;53.766;9.626;2023-03-01T13:57:48;5.20;99.90
12872;DHT22;6504;53.766;9.626;2023-03-01T14:00:33;5.30;99.90
12872;DHT22;6504;53.766;9.626;2023-03-01T14:03:13;5.30;99.90
12872;DHT22;6504;53.766;9.626;2023-03-01T14:05:43;5.30;99.90
12872;DHT22;6504;53.766;9.626;2023-03-01T14:08:23;5.30;99.90
12872;DHT22;6504;53.766;9.626;2023-03-01T14:14:11;5.30;99.90
12872;DHT22;6504;53.766;9.626;2023-03-01T14:16:47;5.40;99.90
12872;DHT22;6504;53.766;9.626;2023-03-01T14:19:18;5.40;99.90
12872;DHT22;6504;53.766;9.626;2023-03-01T14:22:05;5.40;99.90
12872;DHT22;6504;53.766;9.626;2023-03-01T14:24:40;5.40;99.90
12872;DHT22;6504;53.766;9.626;2023-03-01T14:27:12;5.50;99.90
12872;DHT22;6504;53.766;9.626;2023-03-01T14:29:43;5.60;99.90
12872;DHT22;6504;53.766;9.626;2023-03-01T14:32:18;5.60;99.90
12872;DHT22;6504;53.766;9.626;2023-03-01T14:34:48;5.60;99.90
12872;DHT22;6504;53.766;9.626;2023-03-01T14:37:20;5.60;99.90
12872;DHT22;6504;53.766;9.626;2023-03-01T14:39:49;5.70;99.90
12872;DHT22;6504;53.766;9.626;2023-03-01T14:42:18;5.70;99.90
12872;DHT22;6504;53.766;9.626;2023-03-01T14:44:50;5.80;99.90
12872;DHT22;6504;53.766;9.626;2023-03-01T14:47:27;5.80;99.90
12872;DHT22;6504;53.766;9.626;2023-03-01T14:49:58;5.80;99.90
12872;DHT22;6504;53.766;9.626;2023-03-01T14:52:33;5.90;99.90
12872;DHT22;6504;53.766;9.626;2023-03-01T14:55:05;5.90;99.90
12872;DHT22;6504;53.766;9.626;2023-03-01T14:57:34;6.00;99.90
12872;DHT22;6504;53.766;9.626;2023-03-01T15:00:07;6.00;99.90
12872;DHT22;6504;53.766;9.626;2023-03-01T15:02:35;6.00;99.90
12872;DHT22;6504;53.766;9.626;2023-03-01T15:05:06;6.00;99.90
12872;DHT22;6504;53.766;9.626;2023-03-01T15:07:39;6.10;99.90
12872;DHT22;6504;53.766;9.626;2023-03-01T15:10:17;6.10;99.90
12872;DHT22;6504;53.766;9.626;2023-03-01T15:12:47;6.20;99.90
12872;DHT22;6504;53.766;9.626;2023-03-01T15:15:26;6.10;99.90
12872;DHT22;6504;53.766;9.626;2023-03-01T15:17:59;6.20;99.90
12872;DHT22;6504;53.766;9.626;2023-03-01T15:20:29;6.30;99.90
12872;DHT22;6504;53.766;9.626;2023-03-01T15:23:02;6.30;99.90
12872;DHT22;6504;53.766;9.626;2023-03-01T15:25:32;6.30;99.90
12872;DHT22;6504;53.766;9.626;2023-03-01T15:28:01;6.30;99.90
12872;DHT22;6504;53.766;9.626;2023-03-01T15:30:32;6.30;99.90
12872;DHT22;6504;53.766;9.626;2023-03-01T15:33:27;6.30;99.90
12872;DHT22;6504;53.766;9.626;2023-03-01T15:35:56;6.30;99.90
12872;DHT22;6504;53.766;9.626;2023-03-01T15:38:34;6.30;99.90
12872;DHT22;6504;53.766;9.626;2023-03-01T15:41:22;6.30;99.90
12872;DHT22;6504;53.766;9.626;2023-03-01T15:43:50;6.30;99.90
12872;DHT22;6504;53.766;9.626;2023-03-01T15:46:26;6.30;99.90
12872;DHT22;6504;53.766;9.626;2023-03-01T15:48:58;6.30;99.90
12872;DHT22;6504;53.766;9.626;2023-03-01T15:51:30;6.20;99.90
12872;DHT22;6504;53.766;9.626;2023-03-01T15:54:00;6.20;99.90
12872;DHT22;6504;53.766;9.626;2023-03-01T15:56:28;6.20;99.90
12872;DHT22;6504;53.766;9.626;2023-03-01T15:59:01;6.20;99.90
12872;DHT22;6504;53.766;9.626;2023-03-01T16:01:31;6.20;99.90
12872;DHT22;6504;53.766;9.626;2023-03-01T16:04:02;6.10;99.90
12872;DHT22;6504;53.766;9.626;2023-03-01T16:06:30;6.10;99.90
12872;DHT22;6504;53.766;9.626;2023-03-01T16:08:58;6.10;99.90
12872;DHT22;6504;53.766;9.626;2023-03-01T16:11:26;6.00;99.90
12872;DHT22;6504;53.766;9.626;2023-03-01T16:13:54;6.00;99.90
12872;DHT22;6504;53.766;9.626;2023-03-01T16:16:23;6.00;99.90
12872;DHT22;6504;53.766;9.626;2023-03-01T16:18:52;5.90;99.90
12872;DHT22;6504;53.766;9.626;2023-03-01T16:21:23;5.80;99.90
12872;DHT22;6504;53.766;9.626;2023-03-01T16:23:52;5.80;99.90
12872;DHT22;6504;53.766;9.626;2023-03-01T16:26:20;5.70;99.90
12872;DHT22;6504;53.766;9.626;2023-03-01T16:28:48;5.60;99.90
12872;DHT22;6504;53.766;9.626;2023-03-01T16:31:18;5.50;99.90
12872;DHT22;6504;53.766;9.626;2023-03-01T16:33:48;5.50;99.90
12872;DHT22;6504;53.766;9.626;2023-03-01T16:36:20;5.40;99.90
12872;DHT22;6504;53.766;9.626;2023-03-01T16:38:50;5.30;99.90
12872;DHT22;6504;53.766;9.626;2023-03-01T16:41:20;5.20;99.90
12872;DHT22;6504;53.766;9.626;2023-03-01T16:43:49;5.10;99.90
12872;DHT22;6504;53.766;9.626;2023-03-01T16:46:20;5.10;99.90
12872;DHT22;6504;53.766;9.626;2023-03-01T16:48:49;5.00;99.90
12872;DHT22;6504;53.766;9.626;2023-03-01T16:51:19;4.90;99.90
12872;DHT22;6504;53.766;9.626;2023-03-01T16:53:48;4.80;99.90
12872;DHT22;6504;53.766;9.626;2023-03-01T16:56:16;4.70;99.90
12872;DHT22;6504;53.766;9.626;2023-03-01T16:58:45;4.60;99.90